createdAt,value
2018-06-02T00:00:00.466Z,22.75
2018-06-02T00:02:26.719Z,22.85
2018-06-02T00:04:52.982Z,22.77
2018-06-02T00:07:19.218Z,22.80
2018-06-02T00:09:45.464Z,22.74
2018-06-02T00:12:11.740Z,22.71
2018-06-02T00:14:37.999Z,22.74
2018-06-02T00:17:04.241Z,22.65
2018-06-02T00:19:30.532Z,22.69
2018-06-02T00:21:57.585Z,22.72
2018-06-02T00:24:23.828Z,22.57
2018-06-02T00:26:50.339Z,22.55
2018-06-02T00:29:16.603Z,22.42
2018-06-02T00:31:42.859Z,22.32
2018-06-02T00:34:09.128Z,22.26
2018-06-02T00:36:35.377Z,22.21
2018-06-02T00:39:01.628Z,22.23
2018-06-02T00:41:27.957Z,22.16
2018-06-02T00:43:54.210Z,22.13
2018-06-02T00:46:20.506Z,22.10
2018-06-02T00:48:46.796Z,22.07
2018-06-02T00:51:13.082Z,21.97
2018-06-02T00:53:39.323Z,21.85
2018-06-02T00:56:05.611Z,21.75
2018-06-02T00:58:31.882Z,21.81
2018-06-02T01:00:58.171Z,21.79
2018-06-02T01:03:24.443Z,21.71
2018-06-02T01:05:50.691Z,21.65
2018-06-02T01:08:16.962Z,21.68
2018-06-02T01:10:43.241Z,21.71
2018-06-02T01:13:09.493Z,21.68
2018-06-02T01:15:35.751Z,21.71
2018-06-02T01:18:02.007Z,21.68
2018-06-02T01:20:28.243Z,21.71
2018-06-02T01:22:54.496Z,21.65
2018-06-02T01:25:20.788Z,21.61
2018-06-02T01:27:47.058Z,21.53
2018-06-02T01:30:13.310Z,21.50
2018-06-02T01:32:39.574Z,21.54
2018-06-02T01:35:05.826Z,21.56
2018-06-02T01:37:32.066Z,21.41
2018-06-02T01:39:58.393Z,21.39
2018-06-02T01:42:24.806Z,21.43
2018-06-02T01:44:51.058Z,21.36
2018-06-02T01:47:17.326Z,21.31
2018-06-02T01:49:43.579Z,21.44
2018-06-02T01:52:09.816Z,21.40
2018-06-02T01:54:36.142Z,21.37
2018-06-02T01:57:02.390Z,21.38
2018-06-02T01:59:28.698Z,21.23
2018-06-02T02:01:54.970Z,21.24
2018-06-02T02:04:21.226Z,21.20
2018-06-02T02:06:47.475Z,21.18
2018-06-02T02:09:13.747Z,21.22
2018-06-02T02:11:40.006Z,21.21
2018-06-02T02:14:06.276Z,21.15
2018-06-02T02:16:32.552Z,21.21
2018-06-02T02:18:58.826Z,21.23
2018-06-02T02:21:25.067Z,21.28
2018-06-02T02:23:51.350Z,21.20
2018-06-02T02:26:17.629Z,21.21
2018-06-02T02:28:43.932Z,21.12
2018-06-02T02:31:10.236Z,21.12
2018-06-02T02:33:36.480Z,20.99
2018-06-02T02:36:02.723Z,21.11
2018-06-02T02:38:29.003Z,21.19
2018-06-02T02:40:55.264Z,21.20
2018-06-02T02:43:21.519Z,20.93
2018-06-02T02:45:47.818Z,20.81
2018-06-02T02:48:14.063Z,20.84
2018-06-02T02:50:40.387Z,20.83
2018-06-02T02:53:06.752Z,20.92
2018-06-02T02:55:33.007Z,20.79
2018-06-02T02:57:59.244Z,20.93
2018-06-02T03:00:25.515Z,20.87
2018-06-02T03:02:51.739Z,20.93
2018-06-02T03:05:18.017Z,20.84
2018-06-02T03:07:44.292Z,20.79
2018-06-02T03:10:10.535Z,20.75
2018-06-02T03:12:36.775Z,20.73
2018-06-02T03:15:03.071Z,20.74
2018-06-02T03:17:29.309Z,20.61
2018-06-02T03:19:55.557Z,20.60
2018-06-02T03:22:21.854Z,20.54
2018-06-02T03:24:48.098Z,20.58
2018-06-02T03:27:14.343Z,20.62
2018-06-02T03:29:40.628Z,20.50
2018-06-02T03:32:06.887Z,20.46
2018-06-02T03:34:33.124Z,20.49
2018-06-02T03:36:59.394Z,20.64
2018-06-02T03:39:25.638Z,20.54
2018-06-02T03:41:51.966Z,20.57
2018-06-02T03:44:18.238Z,20.42
2018-06-02T03:46:44.471Z,20.33
2018-06-02T03:49:10.706Z,20.13
2018-06-02T03:51:36.986Z,20.04
2018-06-02T03:54:03.243Z,20.07
2018-06-02T03:56:29.483Z,20.09
2018-06-02T03:58:55.768Z,20.04
2018-06-02T04:01:22.006Z,19.96
2018-06-02T04:03:48.282Z,20.01
2018-06-02T04:06:14.547Z,20.00
2018-06-02T04:08:40.781Z,20.11
2018-06-02T04:11:07.013Z,20.17
2018-06-02T04:13:33.298Z,20.28
2018-06-02T04:15:59.536Z,20.27
2018-06-02T04:18:25.815Z,20.10
2018-06-02T04:20:52.103Z,20.12
2018-06-02T04:23:18.374Z,20.30
2018-06-02T04:25:44.611Z,20.36
2018-06-02T04:28:10.906Z,20.38
2018-06-02T04:30:37.175Z,20.63
2018-06-02T04:33:03.419Z,20.62
2018-06-02T04:35:29.695Z,20.52
2018-06-02T04:37:55.935Z,20.57
2018-06-02T04:40:22.203Z,20.44
2018-06-02T04:42:48.475Z,20.38
2018-06-02T04:45:14.731Z,20.33
2018-06-02T04:47:41.008Z,20.43
2018-06-02T04:50:07.300Z,20.41
2018-06-02T04:52:33.551Z,20.39
2018-06-02T04:54:59.813Z,20.44
2018-06-02T04:57:26.077Z,20.36
2018-06-02T04:59:52.320Z,20.33
2018-06-02T05:02:18.561Z,20.25
2018-06-02T05:04:44.856Z,20.35
2018-06-02T05:07:11.095Z,20.52
2018-06-02T05:09:37.334Z,20.60
2018-06-02T05:12:03.599Z,20.59
2018-06-02T05:14:29.873Z,20.68
2018-06-02T05:16:56.110Z,20.87
2018-06-02T05:19:22.383Z,20.67
2018-06-02T05:21:48.623Z,20.57
2018-06-02T05:24:14.864Z,20.47
2018-06-02T05:26:41.146Z,20.56
2018-06-02T05:29:07.441Z,20.60
2018-06-02T05:31:33.695Z,20.82
2018-06-02T05:34:00.079Z,20.93
2018-06-02T05:36:26.415Z,20.97
2018-06-02T05:38:52.651Z,20.93
2018-06-02T05:41:18.962Z,20.87
2018-06-02T05:43:45.260Z,20.91
2018-06-02T05:46:11.491Z,20.97
2018-06-02T05:48:37.797Z,20.89
2018-06-02T05:51:04.100Z,21.13
2018-06-02T05:53:30.357Z,21.27
2018-06-02T05:55:56.639Z,21.40
2018-06-02T05:58:22.880Z,21.40
2018-06-02T06:00:49.124Z,21.52
2018-06-02T06:03:15.587Z,21.55
2018-06-02T06:05:41.835Z,21.72
2018-06-02T06:08:08.185Z,21.65
2018-06-02T06:10:34.466Z,21.85
2018-06-02T06:13:00.699Z,21.82
2018-06-02T06:15:26.969Z,21.72
2018-06-02T06:17:53.233Z,21.63
2018-06-02T06:20:19.495Z,21.77
2018-06-02T06:22:45.736Z,21.86
2018-06-02T06:25:11.999Z,21.67
2018-06-02T06:27:38.248Z,21.61
2018-06-02T06:30:04.519Z,21.54
2018-06-02T06:32:30.839Z,21.44
2018-06-02T06:34:57.079Z,21.59
2018-06-02T06:37:23.385Z,21.63
2018-06-02T06:39:49.646Z,21.55
2018-06-02T06:42:15.882Z,21.44
2018-06-02T06:44:42.228Z,21.50
2018-06-02T06:47:08.515Z,21.58
2018-06-02T06:49:34.828Z,21.68
2018-06-02T06:52:01.091Z,21.89
2018-06-02T06:54:27.378Z,21.74
2018-06-02T06:56:53.965Z,21.99
2018-06-02T06:59:20.204Z,22.03
2018-06-02T07:01:46.475Z,21.91
2018-06-02T07:04:13.863Z,21.82
2018-06-02T07:06:40.123Z,21.83
2018-06-02T07:09:06.463Z,21.73
2018-06-02T07:11:32.703Z,21.87
2018-06-02T07:13:58.948Z,21.76
2018-06-02T07:16:25.245Z,21.74
2018-06-02T07:18:51.482Z,21.85
2018-06-02T07:21:17.744Z,21.96
2018-06-02T07:23:44.012Z,22.19
2018-06-02T07:26:10.360Z,22.04
2018-06-02T07:28:36.626Z,22.30
2018-06-02T07:31:02.907Z,22.60
2018-06-02T07:33:29.152Z,22.44
2018-06-02T07:35:55.398Z,22.44
2018-06-02T07:38:21.670Z,22.68
2018-06-02T07:40:47.944Z,22.82
2018-06-02T07:43:14.193Z,22.54
2018-06-02T07:45:40.478Z,22.33
2018-06-02T07:48:06.725Z,22.45
2018-06-02T07:50:32.959Z,22.19
2018-06-02T07:52:59.259Z,22.15
2018-06-02T07:55:25.482Z,21.96
2018-06-02T07:57:51.731Z,22.04
2018-06-02T08:00:17.998Z,22.05
2018-06-02T08:02:44.236Z,21.98
2018-06-02T08:05:10.466Z,21.97
2018-06-02T08:07:36.747Z,21.95
2018-06-02T08:10:03.013Z,21.94
2018-06-02T08:12:29.251Z,22.15
2018-06-02T08:14:55.552Z,22.37
2018-06-02T08:17:21.798Z,22.52
2018-06-02T08:19:48.048Z,22.59
2018-06-02T08:22:14.322Z,22.36
2018-06-02T08:24:40.600Z,22.16
2018-06-02T08:27:06.843Z,22.19
2018-06-02T08:29:33.119Z,22.15
2018-06-02T08:31:59.359Z,22.12
2018-06-02T08:34:25.604Z,22.21
2018-06-02T08:36:51.867Z,22.08
2018-06-02T08:39:18.147Z,22.12
2018-06-02T08:41:44.396Z,22.01
2018-06-02T08:44:10.717Z,21.82
2018-06-02T08:46:36.958Z,21.79
2018-06-02T08:49:03.191Z,21.70
2018-06-02T08:51:29.476Z,21.80
2018-06-02T08:53:55.735Z,22.09
2018-06-02T08:56:22.009Z,22.31
2018-06-02T08:58:48.304Z,22.48
2018-06-02T09:01:14.543Z,22.50
2018-06-02T09:03:40.791Z,22.39
2018-06-02T09:06:07.069Z,22.40
2018-06-02T09:08:33.314Z,22.33
2018-06-02T09:10:59.543Z,22.55
2018-06-02T09:13:25.815Z,22.64
2018-06-02T09:15:52.077Z,22.60
2018-06-02T09:18:18.327Z,22.46
2018-06-02T09:20:44.611Z,22.55
2018-06-02T09:23:10.852Z,22.66
2018-06-02T09:25:37.113Z,22.66
2018-06-02T09:28:03.441Z,22.59
2018-06-02T09:30:29.702Z,22.56
2018-06-02T09:32:55.938Z,22.98
2018-06-02T09:35:22.222Z,23.13
2018-06-02T09:37:48.466Z,23.16
2018-06-02T09:40:14.747Z,23.37
2018-06-02T09:42:41.018Z,23.63
2018-06-02T09:45:07.263Z,23.56
2018-06-02T09:47:33.520Z,23.64
2018-06-02T09:49:59.797Z,23.54
2018-06-02T09:52:26.026Z,23.30
2018-06-02T09:54:52.263Z,22.93
2018-06-02T09:57:18.523Z,22.85
2018-06-02T09:59:44.784Z,22.68
2018-06-02T10:02:11.015Z,22.68
2018-06-02T10:04:37.325Z,22.63
2018-06-02T10:07:03.625Z,22.62
2018-06-02T10:09:29.879Z,22.52
2018-06-02T10:11:56.173Z,22.68
2018-06-02T10:14:22.407Z,22.55
2018-06-02T10:16:48.703Z,22.36
2018-06-02T10:19:14.969Z,22.36
2018-06-02T10:21:41.212Z,22.52
2018-06-02T10:24:07.470Z,22.70
2018-06-02T10:26:33.742Z,22.59
2018-06-02T10:28:59.996Z,22.62
2018-06-02T10:31:26.250Z,22.78
2018-06-02T10:33:52.606Z,23.01
2018-06-02T10:36:18.846Z,22.99
2018-06-02T10:38:45.143Z,22.95
2018-06-02T10:41:11.407Z,22.91
2018-06-02T10:43:37.664Z,22.84
2018-06-02T10:46:03.894Z,23.18
2018-06-02T10:48:30.193Z,23.38
2018-06-02T10:50:56.439Z,23.44
2018-06-02T10:53:22.675Z,23.34
2018-06-02T10:55:48.950Z,23.15
2018-06-02T10:58:15.199Z,23.18
2018-06-02T11:00:41.430Z,23.29
2018-06-02T11:03:07.715Z,23.39
2018-06-02T11:05:33.958Z,23.53
2018-06-02T11:08:00.209Z,23.81
2018-06-02T11:10:26.484Z,24.16
2018-06-02T11:12:52.767Z,24.06
2018-06-02T11:15:18.990Z,23.84
2018-06-02T11:17:45.282Z,23.55
2018-06-02T11:20:11.523Z,23.64
2018-06-02T11:22:37.760Z,23.79
2018-06-02T11:25:04.044Z,23.93
2018-06-02T11:27:30.287Z,23.67
2018-06-02T11:29:56.531Z,23.61
2018-06-02T11:32:22.798Z,23.46
2018-06-02T11:34:49.031Z,23.43
2018-06-02T11:37:15.272Z,23.42
2018-06-02T11:39:41.606Z,23.50
2018-06-02T11:42:07.863Z,23.57
2018-06-02T11:44:34.095Z,23.65
2018-06-02T11:47:00.368Z,23.68
2018-06-02T11:49:26.610Z,23.58
2018-06-02T11:51:52.838Z,23.39
2018-06-02T11:54:19.107Z,23.36
2018-06-02T11:56:45.340Z,23.61
2018-06-02T11:59:11.579Z,23.82
2018-06-02T12:01:37.856Z,24.08
2018-06-02T12:04:04.126Z,24.18
2018-06-02T12:06:30.419Z,24.10
2018-06-02T12:08:56.694Z,24.17
2018-06-02T12:11:22.946Z,24.16
2018-06-02T12:13:49.253Z,24.02
2018-06-02T12:16:15.507Z,23.93
2018-06-02T12:18:41.734Z,23.84
2018-06-02T12:21:07.975Z,23.68
2018-06-02T12:23:34.262Z,23.46
2018-06-02T12:26:00.499Z,23.36
2018-06-02T12:28:26.805Z,23.28
2018-06-02T12:30:53.052Z,23.26
2018-06-02T12:33:19.294Z,23.20
2018-06-02T12:35:45.582Z,23.13
2018-06-02T12:38:11.856Z,23.04
2018-06-02T12:40:38.101Z,23.04
2018-06-02T12:43:04.366Z,23.01
2018-06-02T12:45:30.637Z,23.02
2018-06-02T12:47:56.886Z,23.01
2018-06-02T12:50:23.143Z,23.02
2018-06-02T12:52:49.411Z,23.00
2018-06-02T12:55:15.675Z,23.04
2018-06-02T12:57:41.906Z,23.17
2018-06-02T13:00:08.196Z,23.29
2018-06-02T13:02:34.444Z,23.56
2018-06-02T13:05:00.691Z,23.60
2018-06-02T13:07:26.981Z,23.69
2018-06-02T13:09:53.217Z,23.64
2018-06-02T13:12:19.447Z,23.58
2018-06-02T13:14:45.715Z,23.76
2018-06-02T13:17:11.952Z,24.06
2018-06-02T13:19:38.179Z,24.17
2018-06-02T13:22:04.431Z,24.57
2018-06-02T13:24:30.692Z,24.86
2018-06-02T13:26:56.943Z,24.95
2018-06-02T13:29:23.227Z,25.05
2018-06-02T13:31:49.473Z,25.13
2018-06-02T13:34:15.702Z,24.99
2018-06-02T13:36:41.995Z,25.20
2018-06-02T13:39:08.231Z,25.51
2018-06-02T13:41:34.487Z,25.35
2018-06-02T13:44:00.768Z,25.22
2018-06-02T13:46:27.043Z,25.19
2018-06-02T13:48:53.299Z,25.19
2018-06-02T13:51:19.565Z,25.06
2018-06-02T13:53:45.807Z,25.05
2018-06-02T13:56:12.034Z,24.93
2018-06-02T13:58:38.306Z,24.69
2018-06-02T14:01:04.534Z,24.74
2018-06-02T14:03:30.768Z,24.56
2018-06-02T14:05:57.070Z,24.50
2018-06-02T14:08:23.327Z,24.53
2018-06-02T14:10:49.563Z,24.43
2018-06-02T14:13:15.817Z,24.34
2018-06-02T14:15:42.041Z,24.47
2018-06-02T14:18:08.286Z,24.46
2018-06-02T14:20:34.535Z,24.48
2018-06-02T14:23:00.766Z,24.60
2018-06-02T14:25:27.015Z,24.81
2018-06-02T14:27:53.278Z,25.02
2018-06-02T14:30:19.501Z,24.69
2018-06-02T14:32:45.750Z,24.64
2018-06-02T14:35:12.020Z,24.73
2018-06-02T14:37:38.273Z,24.79
2018-06-02T14:40:04.514Z,25.02
2018-06-02T14:42:30.775Z,25.17
2018-06-02T14:44:57.035Z,25.34
2018-06-02T14:47:23.287Z,25.62
2018-06-02T14:49:49.555Z,26.13
2018-06-02T14:52:15.793Z,26.92
2018-06-02T14:54:42.035Z,27.25
2018-06-02T14:57:08.499Z,27.54
2018-06-02T14:59:34.954Z,27.45
2018-06-02T15:02:01.261Z,26.81
2018-06-02T15:04:27.518Z,26.39
2018-06-02T15:06:53.757Z,26.21
2018-06-02T15:09:19.980Z,26.74
2018-06-02T15:11:46.238Z,27.12
2018-06-02T15:14:12.454Z,27.37
2018-06-02T15:16:38.670Z,26.77
2018-06-02T15:19:04.974Z,26.41
2018-06-02T15:21:31.202Z,26.12
2018-06-02T15:23:57.430Z,25.92
2018-06-02T15:26:23.913Z,25.67
2018-06-02T15:28:50.171Z,25.54
2018-06-02T15:31:16.591Z,25.54
2018-06-02T15:33:42.823Z,25.56
2018-06-02T15:36:09.059Z,25.35
2018-06-02T15:38:35.286Z,24.96
2018-06-02T15:41:01.574Z,24.76
2018-06-02T15:43:27.942Z,24.81
2018-06-02T15:45:54.216Z,24.62
2018-06-02T15:48:20.507Z,24.83
2018-06-02T15:50:46.760Z,24.88
2018-06-02T15:53:13.002Z,24.71
2018-06-02T15:55:39.290Z,24.50
2018-06-02T15:58:05.523Z,24.49
2018-06-02T16:00:31.751Z,24.47
2018-06-02T16:02:58.022Z,24.57
2018-06-02T16:05:24.242Z,24.53
2018-06-02T16:07:50.503Z,24.52
2018-06-02T16:10:16.758Z,24.63
2018-06-02T16:12:43.005Z,24.67
2018-06-02T16:15:09.387Z,24.85
2018-06-02T16:17:35.672Z,25.03
2018-06-02T16:20:01.904Z,25.14
2018-06-02T16:22:28.121Z,25.02
2018-06-02T16:24:54.538Z,24.96
2018-06-02T16:27:20.811Z,24.80
2018-06-02T16:29:47.039Z,24.72
2018-06-02T16:32:13.321Z,24.65
2018-06-02T16:34:39.566Z,24.64
2018-06-02T16:37:05.791Z,24.64
2018-06-02T16:39:32.040Z,24.47
2018-06-02T16:41:58.272Z,24.32
2018-06-02T16:44:24.511Z,24.33
2018-06-02T16:46:50.797Z,24.24
2018-06-02T16:49:17.011Z,24.26
2018-06-02T16:51:43.230Z,24.41
2018-06-02T16:54:09.482Z,24.50
2018-06-02T16:56:35.707Z,24.51
2018-06-02T16:59:01.942Z,24.44
2018-06-02T17:01:28.207Z,24.43
2018-06-02T17:03:54.434Z,24.30
2018-06-02T17:06:20.709Z,24.22
2018-06-02T17:08:46.927Z,24.27
2018-06-02T17:11:13.238Z,24.26
2018-06-02T17:13:39.466Z,24.35
2018-06-02T17:16:05.722Z,24.22
2018-06-02T17:18:31.946Z,24.16
2018-06-02T17:20:58.202Z,24.08
2018-06-02T17:23:24.467Z,24.00
2018-06-02T17:25:50.712Z,24.00
2018-06-02T17:28:16.947Z,23.97
2018-06-02T17:30:43.210Z,23.95
2018-06-02T17:33:09.469Z,23.94
2018-06-02T17:35:35.690Z,23.95
2018-06-02T17:38:01.984Z,23.92
2018-06-02T17:40:28.219Z,23.89
2018-06-02T17:42:54.461Z,23.82
2018-06-02T17:45:20.729Z,23.78
2018-06-02T17:47:46.973Z,23.77
2018-06-02T17:50:13.215Z,23.64
2018-06-02T17:52:39.492Z,23.68
2018-06-02T17:55:05.785Z,23.76
2018-06-02T17:57:32.040Z,23.77
2018-06-02T17:59:58.338Z,23.82
2018-06-02T18:02:24.568Z,23.85
2018-06-02T18:04:50.802Z,23.92
2018-06-02T18:07:17.067Z,24.00
2018-06-02T18:09:43.307Z,24.06
2018-06-02T18:12:09.567Z,24.12
2018-06-02T18:14:35.830Z,24.08
2018-06-02T18:17:02.069Z,24.00
2018-06-02T18:19:28.315Z,23.86
2018-06-02T18:21:54.611Z,23.82
2018-06-02T18:24:20.858Z,23.66
2018-06-02T18:26:47.092Z,23.53
2018-06-02T18:29:13.371Z,23.45
2018-06-02T18:31:39.610Z,23.41
2018-06-02T18:34:05.847Z,23.36
2018-06-02T18:36:32.136Z,23.22
2018-06-02T18:38:58.376Z,23.19
2018-06-02T18:41:24.611Z,23.08
2018-06-02T18:43:50.886Z,23.02
2018-06-02T18:46:17.119Z,23.01
2018-06-02T18:48:43.356Z,23.09
2018-06-02T18:51:09.642Z,23.14
2018-06-02T18:53:35.956Z,23.21
2018-06-02T18:56:02.203Z,23.19
2018-06-02T18:58:28.554Z,23.22
2018-06-02T19:00:54.920Z,23.25
2018-06-02T19:03:21.142Z,23.26
2018-06-02T19:05:47.429Z,23.21
2018-06-02T19:08:13.706Z,23.19
2018-06-02T19:10:40.011Z,23.11
2018-06-02T19:13:06.278Z,23.09
2018-06-02T19:15:32.519Z,23.15
2018-06-02T19:17:58.754Z,23.15
2018-06-02T19:20:25.106Z,23.11
2018-06-02T19:22:51.374Z,23.04
2018-06-02T19:25:17.619Z,22.93
2018-06-02T19:27:43.894Z,22.93
2018-06-02T19:30:10.166Z,22.98
2018-06-02T19:32:36.412Z,23.01
2018-06-02T19:35:02.751Z,23.06
2018-06-02T19:37:28.996Z,23.05
2018-06-02T19:39:55.290Z,23.06
2018-06-02T19:42:21.566Z,23.06
2018-06-02T19:44:47.808Z,23.09
2018-06-02T19:47:14.058Z,23.09
2018-06-02T19:49:40.418Z,23.09
2018-06-02T19:52:06.671Z,23.07
2018-06-02T19:54:32.915Z,23.07
2018-06-02T19:56:59.200Z,23.08
2018-06-02T19:59:25.490Z,23.05
2018-06-02T20:01:51.766Z,23.04
2018-06-02T20:04:18.051Z,23.04
2018-06-02T20:06:44.347Z,23.00
2018-06-02T20:09:10.619Z,23.00
2018-06-02T20:11:36.890Z,22.97
2018-06-02T20:14:03.138Z,22.94
2018-06-02T20:16:29.390Z,22.91
2018-06-02T20:18:55.679Z,22.91
2018-06-02T20:21:22.198Z,22.90
2018-06-02T20:23:48.599Z,22.88
2018-06-02T20:26:14.882Z,22.78
2018-06-02T20:28:41.145Z,22.70
2018-06-02T20:31:07.378Z,22.62
2018-06-02T20:33:33.918Z,22.63
2018-06-02T20:36:00.138Z,22.70
2018-06-02T20:38:26.571Z,22.72
2018-06-02T20:40:52.913Z,22.76
2018-06-02T20:43:19.302Z,22.77
2018-06-02T20:45:45.572Z,22.80
2018-06-02T20:48:11.870Z,22.85
2018-06-02T20:50:38.172Z,22.85
2018-06-02T20:53:04.423Z,22.80
2018-06-02T20:55:30.791Z,22.78
2018-06-02T20:57:57.048Z,22.73
2018-06-02T21:00:23.295Z,22.71
2018-06-02T21:02:50.036Z,22.68
2018-06-02T21:05:16.561Z,22.69
2018-06-02T21:07:43.477Z,22.64
2018-06-02T21:10:09.786Z,22.61
2018-06-02T21:12:36.233Z,22.55
2018-06-02T21:15:02.536Z,22.52
2018-06-02T21:17:28.810Z,22.47
2018-06-02T21:19:55.092Z,22.40
2018-06-02T21:22:21.387Z,22.37
2018-06-02T21:24:48.247Z,22.35
2018-06-02T21:27:14.550Z,22.26
2018-06-02T21:29:40.953Z,22.21
2018-06-02T21:32:07.271Z,22.15
2018-06-02T21:34:33.703Z,22.11
2018-06-02T21:36:59.969Z,22.12
2018-06-02T21:39:26.407Z,22.02
2018-06-02T21:41:52.719Z,22.00
2018-06-02T21:44:18.983Z,21.99
2018-06-02T21:46:45.665Z,21.97
2018-06-02T21:49:11.961Z,21.97
2018-06-02T21:51:38.391Z,22.02
2018-06-02T21:54:04.759Z,22.03
2018-06-02T21:56:30.987Z,22.00
2018-06-02T21:58:57.395Z,21.99
2018-06-02T22:01:23.699Z,21.97
2018-06-02T22:03:50.152Z,21.95
2018-06-02T22:06:16.450Z,21.93
2018-06-02T22:08:43.003Z,22.01
2018-06-02T22:11:09.319Z,22.07
2018-06-02T22:13:35.723Z,22.08
2018-06-02T22:16:02.108Z,22.11
2018-06-02T22:18:28.379Z,22.11
2018-06-02T22:20:54.862Z,22.09
2018-06-02T22:23:21.118Z,22.12
2018-06-02T22:25:47.367Z,22.11
2018-06-02T22:28:13.880Z,22.04
2018-06-02T22:30:40.226Z,21.91
2018-06-02T22:33:06.564Z,21.80
2018-06-02T22:35:32.831Z,21.77
2018-06-02T22:37:59.302Z,21.83
2018-06-02T22:40:25.608Z,21.94
2018-06-02T22:42:52.051Z,21.86
2018-06-02T22:45:18.329Z,21.81
2018-06-02T22:47:44.668Z,21.80
2018-06-02T22:50:10.905Z,21.85
2018-06-02T22:52:37.219Z,21.89
2018-06-02T22:55:03.528Z,21.94
2018-06-02T22:57:29.990Z,22.02
2018-06-02T22:59:56.541Z,22.08
2018-06-02T23:02:22.865Z,22.12
2018-06-02T23:04:49.402Z,22.09
2018-06-02T23:07:15.713Z,22.10
2018-06-02T23:09:42.035Z,22.10
2018-06-02T23:12:08.681Z,22.08
2018-06-02T23:14:35.083Z,22.05
2018-06-02T23:17:01.335Z,22.08
2018-06-02T23:19:27.578Z,22.08
2018-06-02T23:21:53.839Z,22.09
2018-06-02T23:24:20.066Z,22.09
2018-06-02T23:26:46.353Z,22.05
2018-06-02T23:29:12.591Z,22.05
2018-06-02T23:31:38.830Z,21.99
2018-06-02T23:34:05.151Z,21.99
2018-06-02T23:36:31.373Z,21.90
2018-06-02T23:38:57.645Z,21.72
2018-06-02T23:41:23.889Z,21.61
2018-06-02T23:43:50.145Z,21.71
2018-06-02T23:46:16.398Z,21.68
2018-06-02T23:48:42.643Z,21.74
2018-06-02T23:51:08.926Z,21.74
2018-06-02T23:53:35.174Z,21.72
2018-06-02T23:56:01.427Z,21.68
2018-06-02T23:58:27.698Z,21.61
